UAE205 KLAX-MMGL
Flight info
| Callsign | UAE205 |
|---|---|
| Flight time | N/A |
| Altitude | 35000 |
| Route | PNDAH2 OTAYY DCT TIJ UT4 ANTEL DCT SOUSY DCT AMULA AMULA1B |
| Aircraft | A388/J-SADE2E3FGHIJ3J4J5M1RWXY/LB1D1 |
Departure
| Time | 2026-04-20 23:25 |
|---|---|
| Airport | Los Angeles International Airport (KLAX) |
Arrival
| Time | N/A |
|---|---|
| Airport | Guadalajara International Airport (MMGL) |
| Time | Latitude | Longitude | Altitude | Speed | Heading |
|---|---|---|---|---|---|
| 2026-04-20 22:55 | 33.94258 | -118.41114 | 141 ft | 0 kts | 83° |
| 2026-04-20 23:10 | 33.94258 | -118.41119 | 141 ft | 2 kts | 82° |
| 2026-04-20 23:10 | 33.94256 | -118.41137 | 141 ft | 2 kts | 82° |
| 2026-04-20 23:11 | 33.94255 | -118.41148 | 141 ft | 2 kts | 82° |
| 2026-04-20 23:11 | 33.94252 | -118.41166 | 141 ft | 2 kts | 67° |
| 2026-04-20 23:11 | 33.94245 | -118.41182 | 141 ft | 2 kts | 50° |
| 2026-04-20 23:11 | 33.94234 | -118.41195 | 141 ft | 2 kts | 35° |
| 2026-04-20 23:12 | 33.94222 | -118.41205 | 141 ft | 2 kts | 20° |
| 2026-04-20 23:12 | 33.94207 | -118.41210 | 141 ft | 2 kts | 6° |
| 2026-04-20 23:12 | 33.94195 | -118.41211 | 141 ft | 1 kts | 354° |
| 2026-04-20 23:12 | 33.94189 | -118.41211 | 141 ft | 1 kts | 353° |
| 2026-04-20 23:13 | 33.94188 | -118.41211 | 141 ft | 0 kts | 353° |
| 2026-04-20 23:17 | 33.94193 | -118.41212 | 141 ft | 3 kts | 353° |
| 2026-04-20 23:17 | 33.94228 | -118.41217 | 141 ft | 7 kts | 353° |
| 2026-04-20 23:17 | 33.94285 | -118.41226 | 141 ft | 10 kts | 353° |
| 2026-04-20 23:17 | 33.94359 | -118.41237 | 141 ft | 11 kts | 353° |
| 2026-04-20 23:18 | 33.94439 | -118.41248 | 141 ft | 11 kts | 353° |
| 2026-04-20 23:18 | 33.94504 | -118.41258 | 141 ft | 8 kts | 353° |
| 2026-04-20 23:18 | 33.94526 | -118.41262 | 141 ft | 1 kts | 353° |
| 2026-04-20 23:18 | 33.94528 | -118.41262 | 141 ft | 0 kts | 353° |
| 2026-04-20 23:19 | 33.94531 | -118.41262 | 141 ft | 0 kts | 353° |
| 2026-04-20 23:19 | 33.94533 | -118.41263 | 141 ft | 0 kts | 353° |
| 2026-04-20 23:19 | 33.94553 | -118.41266 | 141 ft | 6 kts | 353° |
| 2026-04-20 23:19 | 33.94602 | -118.41274 | 141 ft | 8 kts | 352° |
| 2026-04-20 23:20 | 33.94663 | -118.41284 | 141 ft | 10 kts | 352° |
| 2026-04-20 23:20 | 33.94735 | -118.41293 | 141 ft | 11 kts | 2° |
| 2026-04-20 23:20 | 33.94795 | -118.41243 | 141 ft | 12 kts | 65° |
| 2026-04-20 23:20 | 33.94808 | -118.41140 | 141 ft | 13 kts | 83° |
| 2026-04-20 23:21 | 33.94820 | -118.41024 | 141 ft | 14 kts | 83° |
| 2026-04-20 23:21 | 33.94832 | -118.40903 | 141 ft | 15 kts | 83° |
| 2026-04-20 23:21 | 33.94845 | -118.40781 | 141 ft | 15 kts | 83° |
| 2026-04-20 23:21 | 33.94857 | -118.40656 | 141 ft | 15 kts | 83° |
| 2026-04-20 23:22 | 33.94870 | -118.40534 | 141 ft | 15 kts | 83° |
| 2026-04-20 23:22 | 33.94882 | -118.40414 | 141 ft | 14 kts | 83° |
| 2026-04-20 23:22 | 33.94894 | -118.40294 | 141 ft | 14 kts | 83° |
| 2026-04-20 23:22 | 33.94906 | -118.40177 | 141 ft | 13 kts | 83° |
| 2026-04-20 23:23 | 33.94913 | -118.40101 | 141 ft | 6 kts | 83° |
| 2026-04-20 23:23 | 33.94917 | -118.40068 | 141 ft | 5 kts | 83° |
| 2026-04-20 23:23 | 33.94921 | -118.40027 | 141 ft | 4 kts | 83° |
| 2026-04-20 23:23 | 33.94924 | -118.39995 | 141 ft | 4 kts | 82° |
| 2026-04-20 23:24 | 33.94938 | -118.39954 | 141 ft | 6 kts | 57° |
| 2026-04-20 23:24 | 33.94977 | -118.39922 | 141 ft | 8 kts | 18° |
| 2026-04-20 23:24 | 33.95029 | -118.39938 | 141 ft | 9 kts | 311° |
| 2026-04-20 23:24 | 33.95036 | -118.40021 | 141 ft | 12 kts | 264° |
| 2026-04-20 23:25 | 33.95005 | -118.40346 | 141 ft | 73 kts | 263° |
| 2026-04-20 23:25 | 33.94913 | -118.41226 | 141 ft | 139 kts | 263° |
| 2026-04-20 23:25 | 33.94716 | -118.43113 | 663 ft | 189 kts | 263° |
| 2026-04-20 23:25 | 33.94605 | -118.44179 | 1156 ft | 203 kts | 263° |
| 2026-04-20 23:26 | 33.94438 | -118.45932 | 1838 ft | 221 kts | 265° |
| 2026-04-20 23:26 | 33.94350 | -118.47790 | 2471 ft | 228 kts | 266° |
| 2026-04-20 23:26 | 33.94275 | -118.49708 | 2973 ft | 234 kts | 267° |
| 2026-04-20 23:26 | 33.94164 | -118.51659 | 3422 ft | 236 kts | 264° |
| 2026-04-20 23:27 | 33.94008 | -118.53621 | 3874 ft | 238 kts | 264° |
| 2026-04-20 23:27 | 33.93854 | -118.55598 | 4320 ft | 240 kts | 264° |
| 2026-04-20 23:27 | 33.93690 | -118.57707 | 4804 ft | 267 kts | 264° |
| 2026-04-20 23:27 | 33.93502 | -118.59957 | 5606 ft | 274 kts | 260° |
| 2026-04-20 23:28 | 33.92760 | -118.62021 | 6346 ft | 276 kts | 227° |
| 2026-04-20 23:28 | 33.91223 | -118.63334 | 7158 ft | 276 kts | 206° |
| 2026-04-20 23:28 | 33.89417 | -118.64047 | 7920 ft | 279 kts | 186° |
| 2026-04-20 23:28 | 33.87494 | -118.63998 | 8699 ft | 281 kts | 175° |
| 2026-04-20 23:29 | 33.85535 | -118.63793 | 9477 ft | 295 kts | 172° |
| 2026-04-20 23:29 | 33.83524 | -118.63098 | 10413 ft | 316 kts | 158° |
| 2026-04-20 23:29 | 33.81524 | -118.61816 | 11366 ft | 339 kts | 150° |
| 2026-04-20 23:29 | 33.79509 | -118.60195 | 12235 ft | 366 kts | 148° |
| 2026-04-20 23:30 | 33.77358 | -118.58402 | 12901 ft | 387 kts | 148° |
| 2026-04-20 23:30 | 33.75140 | -118.56567 | 13620 ft | 393 kts | 148° |
| 2026-04-20 23:30 | 33.72892 | -118.54705 | 14255 ft | 397 kts | 148° |
| 2026-04-20 23:30 | 33.70739 | -118.52631 | 14860 ft | 403 kts | 140° |
| 2026-04-20 23:31 | 33.68818 | -118.50170 | 15482 ft | 411 kts | 129° |
| 2026-04-20 23:31 | 33.67311 | -118.47210 | 16131 ft | 416 kts | 124° |
| 2026-04-20 23:31 | 33.65925 | -118.44154 | 16746 ft | 423 kts | 120° |
| 2026-04-20 23:31 | 33.64632 | -118.40978 | 17250 ft | 427 kts | 120° |
| 2026-04-20 23:32 | 33.63294 | -118.37798 | 17751 ft | 431 kts | 120° |
| 2026-04-20 23:32 | 33.61953 | -118.34584 | 18252 ft | 434 kts | 120° |
| 2026-04-20 23:32 | 33.60598 | -118.31351 | 18752 ft | 438 kts | 120° |
| 2026-04-20 23:32 | 33.59237 | -118.28102 | 19381 ft | 440 kts | 120° |
| 2026-04-20 23:33 | 33.57853 | -118.24802 | 20144 ft | 444 kts | 120° |
| 2026-04-20 23:33 | 33.56469 | -118.21504 | 20894 ft | 448 kts | 120° |
| 2026-04-20 23:33 | 33.55070 | -118.18175 | 21644 ft | 452 kts | 120° |
| 2026-04-20 23:33 | 33.53653 | -118.14805 | 22230 ft | 458 kts | 120° |
| 2026-04-20 23:34 | 33.52192 | -118.11415 | 22780 ft | 462 kts | 120° |
| 2026-04-20 23:34 | 33.50723 | -118.07999 | 23332 ft | 466 kts | 120° |
| 2026-04-20 23:34 | 33.49241 | -118.04557 | 23883 ft | 469 kts | 120° |
| 2026-04-20 23:34 | 33.47652 | -118.01128 | 24419 ft | 469 kts | 127° |
| 2026-04-20 23:35 | 33.45666 | -117.98057 | 24976 ft | 470 kts | 135° |
| 2026-04-20 23:35 | 33.40934 | -117.92707 | 26089 ft | 474 kts | 141° |
| 2026-04-20 23:35 | 33.38473 | -117.90098 | 26641 ft | 477 kts | 141° |
| 2026-04-20 23:36 | 33.35996 | -117.87475 | 27177 ft | 481 kts | 141° |
| 2026-04-20 23:36 | 33.33498 | -117.84833 | 27678 ft | 484 kts | 141° |
| 2026-04-20 23:36 | 33.30962 | -117.82152 | 28184 ft | 487 kts | 141° |
| 2026-04-20 23:36 | 33.28431 | -117.79479 | 28685 ft | 490 kts | 141° |
| 2026-04-20 23:37 | 33.25885 | -117.76790 | 29186 ft | 493 kts | 141° |
| 2026-04-20 23:37 | 33.23323 | -117.74090 | 29687 ft | 496 kts | 141° |
| 2026-04-20 23:37 | 33.20743 | -117.71373 | 30188 ft | 499 kts | 141° |
| 2026-04-20 23:37 | 33.18147 | -117.68640 | 30662 ft | 505 kts | 141° |
| 2026-04-20 23:38 | 33.15509 | -117.65826 | 31132 ft | 518 kts | 140° |
| 2026-04-20 23:38 | 33.12854 | -117.62866 | 31599 ft | 525 kts | 139° |
| 2026-04-20 23:38 | 33.10190 | -117.59897 | 32053 ft | 529 kts | 139° |
| 2026-04-20 23:38 | 33.07508 | -117.56914 | 32461 ft | 533 kts | 139° |
| 2026-04-20 23:39 | 33.04810 | -117.53912 | 32833 ft | 535 kts | 139° |
| 2026-04-20 23:39 | 33.02101 | -117.50905 | 33208 ft | 536 kts | 139° |
| 2026-04-20 23:39 | 32.99383 | -117.47887 | 33581 ft | 538 kts | 139° |
| 2026-04-20 23:39 | 32.96660 | -117.44870 | 33953 ft | 538 kts | 139° |
| 2026-04-20 23:40 | 32.93910 | -117.41824 | 34227 ft | 540 kts | 139° |
| 2026-04-20 23:40 | 32.91176 | -117.38796 | 34474 ft | 540 kts | 139° |
| 2026-04-20 23:40 | 32.88443 | -117.35776 | 34726 ft | 539 kts | 139° |
| 2026-04-20 23:40 | 32.85715 | -117.32763 | 34972 ft | 538 kts | 140° |
| 2026-04-20 23:41 | 32.82982 | -117.29747 | 35071 ft | 540 kts | 140° |
| 2026-04-20 23:41 | 32.77492 | -117.23693 | 35065 ft | 542 kts | 140° |
| 2026-04-20 23:42 | 32.71966 | -117.17614 | 35064 ft | 543 kts | 140° |
| 2026-04-20 23:42 | 32.66520 | -117.11471 | 35052 ft | 544 kts | 136° |
| 2026-04-20 23:43 | 32.61334 | -117.04987 | 35057 ft | 546 kts | 135° |
| 2026-04-20 23:43 | 32.56182 | -116.98388 | 35047 ft | 546 kts | 135° |
| 2026-04-20 23:44 | 32.51040 | -116.91817 | 35037 ft | 547 kts | 135° |
| 2026-04-20 23:44 | 32.45895 | -116.85254 | 35029 ft | 547 kts | 135° |
| 2026-04-20 23:45 | 32.40744 | -116.78697 | 35035 ft | 547 kts | 135° |
| 2026-04-20 23:45 | 32.35572 | -116.72122 | 35041 ft | 547 kts | 135° |
| 2026-04-20 23:46 | 32.30413 | -116.65578 | 35047 ft | 547 kts | 135° |
| 2026-04-20 23:46 | 32.25231 | -116.59016 | 35048 ft | 548 kts | 135° |
| 2026-04-20 23:47 | 32.20039 | -116.52452 | 35048 ft | 548 kts | 135° |
| 2026-04-20 23:47 | 32.14861 | -116.45918 | 35048 ft | 548 kts | 135° |
| 2026-04-20 23:48 | 32.09679 | -116.39392 | 35048 ft | 548 kts | 135° |
| 2026-04-20 23:48 | 32.04492 | -116.32869 | 35044 ft | 548 kts | 136° |
| 2026-04-20 23:49 | 31.99283 | -116.26331 | 35042 ft | 548 kts | 136° |
| 2026-04-20 23:49 | 31.94083 | -116.19818 | 35044 ft | 549 kts | 136° |
| 2026-04-20 23:50 | 31.88882 | -116.13312 | 35041 ft | 549 kts | 136° |
| 2026-04-20 23:50 | 31.83654 | -116.06786 | 35007 ft | 549 kts | 136° |
| 2026-04-20 23:51 | 31.78442 | -116.00292 | 34969 ft | 549 kts | 136° |
| 2026-04-20 23:51 | 31.73224 | -115.93798 | 34935 ft | 550 kts | 136° |
| 2026-04-20 23:52 | 31.67996 | -115.87306 | 34919 ft | 550 kts | 136° |
| 2026-04-20 23:52 | 31.62743 | -115.80794 | 34919 ft | 551 kts | 136° |
| 2026-04-20 23:53 | 31.57497 | -115.74302 | 34920 ft | 552 kts | 136° |
| 2026-04-20 23:53 | 31.52238 | -115.67806 | 34919 ft | 553 kts | 136° |
| 2026-04-20 23:54 | 31.46941 | -115.61274 | 34920 ft | 554 kts | 136° |
| 2026-04-20 23:54 | 31.41652 | -115.54762 | 34922 ft | 555 kts | 136° |
| 2026-04-20 23:55 | 31.36349 | -115.48245 | 34920 ft | 557 kts | 136° |
| 2026-04-20 23:55 | 31.31029 | -115.41721 | 34922 ft | 558 kts | 136° |
| 2026-04-20 23:56 | 31.25674 | -115.35163 | 34923 ft | 559 kts | 136° |
| 2026-04-20 23:56 | 31.20326 | -115.28624 | 34916 ft | 560 kts | 137° |
| 2026-04-20 23:57 | 31.14967 | -115.22086 | 34917 ft | 561 kts | 137° |
| 2026-04-20 23:57 | 31.09576 | -115.15520 | 34923 ft | 562 kts | 136° |
| 2026-04-20 23:58 | 31.04188 | -115.08966 | 34936 ft | 563 kts | 136° |
| 2026-04-20 23:58 | 30.98787 | -115.02410 | 34944 ft | 564 kts | 136° |
| 2026-04-20 23:59 | 30.93374 | -114.95852 | 34952 ft | 565 kts | 137° |
| 2026-04-20 23:59 | 30.87927 | -114.89263 | 34956 ft | 566 kts | 136° |
| 2026-04-21 00:00 | 30.82489 | -114.82697 | 34956 ft | 567 kts | 137° |
| 2026-04-21 00:00 | 30.77037 | -114.76123 | 34956 ft | 568 kts | 137° |
| 2026-04-21 00:01 | 30.71544 | -114.69514 | 34957 ft | 570 kts | 137° |
| 2026-04-21 00:01 | 30.66048 | -114.62912 | 34958 ft | 571 kts | 137° |
| 2026-04-21 00:02 | 30.60546 | -114.56313 | 34959 ft | 572 kts | 137° |
| 2026-04-21 00:02 | 30.55029 | -114.49710 | 34960 ft | 574 kts | 137° |
| 2026-04-21 00:03 | 30.49497 | -114.43098 | 34960 ft | 575 kts | 137° |
| 2026-04-21 00:03 | 30.43925 | -114.36453 | 34962 ft | 576 kts | 137° |
| 2026-04-21 00:04 | 30.38360 | -114.29825 | 34951 ft | 577 kts | 138° |
| 2026-04-21 00:04 | 30.32789 | -114.23203 | 34952 ft | 578 kts | 138° |
| 2026-04-21 00:05 | 30.27205 | -114.16577 | 34956 ft | 579 kts | 138° |
| 2026-04-21 00:05 | 30.21585 | -114.09919 | 34959 ft | 580 kts | 138° |
| 2026-04-21 00:06 | 30.15975 | -114.03285 | 34961 ft | 580 kts | 138° |
| 2026-04-21 00:06 | 30.10355 | -113.96651 | 34965 ft | 581 kts | 138° |
| 2026-04-21 00:07 | 30.04709 | -113.89998 | 34965 ft | 581 kts | 138° |
| 2026-04-21 00:07 | 29.99080 | -113.83376 | 34966 ft | 581 kts | 138° |
| 2026-04-21 00:08 | 29.93447 | -113.76760 | 34967 ft | 581 kts | 138° |
| 2026-04-21 00:08 | 29.87816 | -113.70158 | 34967 ft | 581 kts | 138° |
| 2026-04-21 00:09 | 29.82160 | -113.63539 | 34967 ft | 580 kts | 138° |
| 2026-04-21 00:09 | 29.75794 | -113.55589 | 34971 ft | 583 kts | 135° |
| 2026-04-21 00:10 | 29.71328 | -113.49826 | 34970 ft | 583 kts | 135° |
| 2026-04-21 00:10 | 29.65941 | -113.42883 | 34970 ft | 582 kts | 135° |
| 2026-04-21 00:11 | 29.60574 | -113.35981 | 34971 ft | 582 kts | 135° |
| 2026-04-21 00:11 | 29.55204 | -113.29081 | 34970 ft | 577 kts | 136° |
| 2026-04-21 00:11 | 29.52579 | -113.25697 | 34959 ft | 566 kts | 137° |
| 2026-04-21 00:12 | 29.49967 | -113.22368 | 34954 ft | 563 kts | 137° |
| 2026-04-21 00:12 | 29.44751 | -113.15698 | 34961 ft | 562 kts | 137° |
| 2026-04-21 00:13 | 29.39552 | -113.09056 | 34962 ft | 563 kts | 137° |
| 2026-04-21 00:13 | 29.34349 | -113.02421 | 34962 ft | 563 kts | 137° |
| 2026-04-21 00:14 | 29.29120 | -112.95762 | 34966 ft | 563 kts | 137° |
| 2026-04-21 00:14 | 29.23901 | -112.89127 | 34967 ft | 564 kts | 137° |
| 2026-04-21 00:15 | 29.18674 | -112.82494 | 34972 ft | 564 kts | 137° |
| 2026-04-21 00:15 | 29.13443 | -112.75866 | 34973 ft | 565 kts | 137° |
| 2026-04-21 00:16 | 29.08166 | -112.69191 | 34975 ft | 565 kts | 137° |
| 2026-04-21 00:16 | 29.02919 | -112.62563 | 34974 ft | 566 kts | 137° |
| 2026-04-21 00:17 | 28.97659 | -112.55932 | 34976 ft | 566 kts | 137° |